sensor_id;sensor_type;location;lat;lon;timestamp;P1;durP1;ratioP1;P2;durP2;ratioP2
30173;SDS011;16985;50.814;8.530;2022-09-21T00:01:06;4.10;;;2.20;;
30173;SDS011;16985;50.814;8.530;2022-09-21T00:03:40;2.28;;;1.77;;
30173;SDS011;16985;50.814;8.530;2022-09-21T00:06:08;4.90;;;2.13;;
30173;SDS011;16985;50.814;8.530;2022-09-21T00:08:43;2.63;;;1.80;;
30173;SDS011;16985;50.814;8.530;2022-09-21T00:11:13;2.35;;;2.00;;
30173;SDS011;16985;50.814;8.530;2022-09-21T00:13:45;8.00;;;2.55;;
30173;SDS011;16985;50.814;8.530;2022-09-21T00:16:12;2.90;;;1.90;;
30173;SDS011;16985;50.814;8.530;2022-09-21T00:18:39;5.57;;;2.53;;
30173;SDS011;16985;50.814;8.530;2022-09-21T00:21:05;4.95;;;2.10;;
30173;SDS011;16985;50.814;8.530;2022-09-21T00:23:37;5.50;;;2.20;;
30173;SDS011;16985;50.814;8.530;2022-09-21T00:26:04;3.47;;;1.98;;
30173;SDS011;16985;50.814;8.530;2022-09-21T00:28:36;3.53;;;2.03;;
30173;SDS011;16985;50.814;8.530;2022-09-21T00:31:05;4.15;;;2.85;;
30173;SDS011;16985;50.814;8.530;2022-09-21T00:33:35;2.33;;;2.13;;
30173;SDS011;16985;50.814;8.530;2022-09-21T00:36:02;4.75;;;2.90;;
30173;SDS011;16985;50.814;8.530;2022-09-21T00:38:34;3.47;;;2.75;;
30173;SDS011;16985;50.814;8.530;2022-09-21T00:41:01;12.13;;;2.80;;
30173;SDS011;16985;50.814;8.530;2022-09-21T00:43:28;4.20;;;2.00;;
30173;SDS011;16985;50.814;8.530;2022-09-21T00:45:56;2.70;;;2.17;;
30173;SDS011;16985;50.814;8.530;2022-09-21T00:48:28;3.30;;;2.70;;
30173;SDS011;16985;50.814;8.530;2022-09-21T00:50:55;3.08;;;2.05;;
30173;SDS011;16985;50.814;8.530;2022-09-21T00:53:28;5.40;;;2.08;;
30173;SDS011;16985;50.814;8.530;2022-09-21T00:55:54;2.35;;;2.15;;
30173;SDS011;16985;50.814;8.530;2022-09-21T00:58:27;3.40;;;2.30;;
30173;SDS011;16985;50.814;8.530;2022-09-21T01:01:00;2.35;;;2.20;;
30173;SDS011;16985;50.814;8.530;2022-09-21T01:03:26;8.52;;;2.08;;
30173;SDS011;16985;50.814;8.530;2022-09-21T01:05:55;5.45;;;2.30;;
30173;SDS011;16985;50.814;8.530;2022-09-21T01:08:21;8.85;;;3.20;;
30173;SDS011;16985;50.814;8.530;2022-09-21T01:20:14;4.78;;;2.03;;
30173;SDS011;16985;50.814;8.530;2022-09-21T01:23:11;6.05;;;2.50;;
30173;SDS011;16985;50.814;8.530;2022-09-21T01:28:58;3.10;;;1.73;;
30173;SDS011;16985;50.814;8.530;2022-09-21T01:34:49;5.50;;;2.58;;
30173;SDS011;16985;50.814;8.530;2022-09-21T01:37:25;4.78;;;2.83;;
30173;SDS011;16985;50.814;8.530;2022-09-21T01:40:00;5.90;;;3.90;;
30173;SDS011;16985;50.814;8.530;2022-09-21T01:42:34;8.45;;;3.67;;
30173;SDS011;16985;50.814;8.530;2022-09-21T01:45:04;7.88;;;4.43;;
30173;SDS011;16985;50.814;8.530;2022-09-21T01:47:34;7.15;;;3.90;;
30173;SDS011;16985;50.814;8.530;2022-09-21T01:50:05;7.65;;;3.75;;
30173;SDS011;16985;50.814;8.530;2022-09-21T01:52:38;6.03;;;2.95;;
30173;SDS011;16985;50.814;8.530;2022-09-21T01:55:13;6.40;;;2.90;;
30173;SDS011;16985;50.814;8.530;2022-09-21T01:57:55;4.13;;;3.13;;
30173;SDS011;16985;50.814;8.530;2022-09-21T02:00:29;4.15;;;2.80;;
30173;SDS011;16985;50.814;8.530;2022-09-21T02:02:58;7.28;;;2.40;;
30173;SDS011;16985;50.814;8.530;2022-09-21T02:05:29;10.32;;;2.88;;
30173;SDS011;16985;50.814;8.530;2022-09-21T02:07:56;6.85;;;2.85;;
30173;SDS011;16985;50.814;8.530;2022-09-21T02:10:28;6.72;;;2.95;;
30173;SDS011;16985;50.814;8.530;2022-09-21T02:13:06;5.43;;;2.40;;
30173;SDS011;16985;50.814;8.530;2022-09-21T02:15:48;5.13;;;3.10;;
30173;SDS011;16985;50.814;8.530;2022-09-21T02:18:49;5.63;;;3.75;;
30173;SDS011;16985;50.814;8.530;2022-09-21T02:21:43;4.40;;;2.92;;
30173;SDS011;16985;50.814;8.530;2022-09-21T02:24:27;5.35;;;2.78;;
30173;SDS011;16985;50.814;8.530;2022-09-21T02:32:48;3.53;;;2.67;;
30173;SDS011;16985;50.814;8.530;2022-09-21T02:35:34;3.95;;;2.20;;
30173;SDS011;16985;50.814;8.530;2022-09-21T02:38:38;2.88;;;2.40;;
30173;SDS011;16985;50.814;8.530;2022-09-21T02:41:48;8.00;;;2.80;;
30173;SDS011;16985;50.814;8.530;2022-09-21T02:44:29;2.85;;;2.33;;
30173;SDS011;16985;50.814;8.530;2022-09-21T02:49:40;4.53;;;2.33;;
30173;SDS011;16985;50.814;8.530;2022-09-21T02:52:13;2.33;;;1.83;;
30173;SDS011;16985;50.814;8.530;2022-09-21T02:54:42;3.80;;;2.20;;
30173;SDS011;16985;50.814;8.530;2022-09-21T02:57:12;5.03;;;2.92;;
30173;SDS011;16985;50.814;8.530;2022-09-21T02:59:41;2.95;;;2.10;;
30173;SDS011;16985;50.814;8.530;2022-09-21T03:02:08;4.55;;;1.90;;
30173;SDS011;16985;50.814;8.530;2022-09-21T03:04:36;4.22;;;2.50;;
30173;SDS011;16985;50.814;8.530;2022-09-21T03:07:11;4.82;;;2.22;;
30173;SDS011;16985;50.814;8.530;2022-09-21T03:09:41;2.30;;;2.08;;
30173;SDS011;16985;50.814;8.530;2022-09-21T03:12:07;3.72;;;2.40;;
30173;SDS011;16985;50.814;8.530;2022-09-21T03:14:33;3.72;;;2.72;;
30173;SDS011;16985;50.814;8.530;2022-09-21T03:16:58;3.42;;;2.72;;
30173;SDS011;16985;50.814;8.530;2022-09-21T03:19:24;2.88;;;2.03;;
30173;SDS011;16985;50.814;8.530;2022-09-21T03:21:52;2.70;;;2.20;;
30173;SDS011;16985;50.814;8.530;2022-09-21T03:24:18;5.80;;;2.10;;
30173;SDS011;16985;50.814;8.530;2022-09-21T03:27:05;4.10;;;1.90;;
30173;SDS011;16985;50.814;8.530;2022-09-21T03:29:32;3.13;;;1.90;;
30173;SDS011;16985;50.814;8.530;2022-09-21T03:31:57;2.03;;;1.83;;
30173;SDS011;16985;50.814;8.530;2022-09-21T03:34:24;4.55;;;1.80;;
30173;SDS011;16985;50.814;8.530;2022-09-21T03:36:49;2.25;;;2.05;;
30173;SDS011;16985;50.814;8.530;2022-09-21T03:39:15;3.63;;;2.05;;
30173;SDS011;16985;50.814;8.530;2022-09-21T03:41:41;4.25;;;2.40;;
30173;SDS011;16985;50.814;8.530;2022-09-21T03:44:07;4.53;;;2.60;;
30173;SDS011;16985;50.814;8.530;2022-09-21T03:46:33;3.63;;;2.08;;
30173;SDS011;16985;50.814;8.530;2022-09-21T03:48:59;3.45;;;2.47;;
30173;SDS011;16985;50.814;8.530;2022-09-21T03:51:27;4.60;;;1.77;;
30173;SDS011;16985;50.814;8.530;2022-09-21T03:56:21;4.65;;;1.90;;
30173;SDS011;16985;50.814;8.530;2022-09-21T03:58:47;4.15;;;2.15;;
30173;SDS011;16985;50.814;8.530;2022-09-21T04:01:13;2.63;;;2.15;;
30173;SDS011;16985;50.814;8.530;2022-09-21T04:03:39;2.83;;;2.30;;
30173;SDS011;16985;50.814;8.530;2022-09-21T04:06:08;3.78;;;2.65;;
30173;SDS011;16985;50.814;8.530;2022-09-21T04:08:36;3.75;;;2.55;;
30173;SDS011;16985;50.814;8.530;2022-09-21T04:11:12;2.83;;;2.15;;
30173;SDS011;16985;50.814;8.530;2022-09-21T04:13:41;13.23;;;3.03;;
30173;SDS011;16985;50.814;8.530;2022-09-21T04:16:08;5.13;;;2.30;;
30173;SDS011;16985;50.814;8.530;2022-09-21T04:18:35;3.00;;;2.15;;
30173;SDS011;16985;50.814;8.530;2022-09-21T04:21:03;4.32;;;1.95;;
30173;SDS011;16985;50.814;8.530;2022-09-21T04:23:30;3.80;;;2.13;;
30173;SDS011;16985;50.814;8.530;2022-09-21T04:25:56;2.15;;;1.95;;
30173;SDS011;16985;50.814;8.530;2022-09-21T04:28:22;2.72;;;2.30;;
30173;SDS011;16985;50.814;8.530;2022-09-21T04:30:52;3.95;;;2.17;;
30173;SDS011;16985;50.814;8.530;2022-09-21T04:33:18;3.28;;;2.28;;
30173;SDS011;16985;50.814;8.530;2022-09-21T04:35:44;4.97;;;2.17;;
30173;SDS011;16985;50.814;8.530;2022-09-21T04:38:10;3.25;;;2.30;;
30173;SDS011;16985;50.814;8.530;2022-09-21T04:40:37;2.90;;;2.58;;
30173;SDS011;16985;50.814;8.530;2022-09-21T04:43:03;4.63;;;2.58;;
30173;SDS011;16985;50.814;8.530;2022-09-21T04:45:30;3.17;;;2.15;;
30173;SDS011;16985;50.814;8.530;2022-09-21T04:47:56;4.63;;;2.30;;
30173;SDS011;16985;50.814;8.530;2022-09-21T04:50:22;4.30;;;2.28;;
30173;SDS011;16985;50.814;8.530;2022-09-21T04:53:01;3.40;;;2.15;;
30173;SDS011;16985;50.814;8.530;2022-09-21T04:55:27;9.13;;;2.50;;
30173;SDS011;16985;50.814;8.530;2022-09-21T04:57:52;3.13;;;2.10;;
30173;SDS011;16985;50.814;8.530;2022-09-21T05:00:18;5.45;;;2.63;;
30173;SDS011;16985;50.814;8.530;2022-09-21T05:02:44;4.47;;;2.13;;
30173;SDS011;16985;50.814;8.530;2022-09-21T05:05:10;7.28;;;2.95;;
30173;SDS011;16985;50.814;8.530;2022-09-21T05:07:36;4.30;;;2.40;;
30173;SDS011;16985;50.814;8.530;2022-09-21T05:10:01;4.00;;;2.47;;
30173;SDS011;16985;50.814;8.530;2022-09-21T05:12:27;3.90;;;2.65;;
30173;SDS011;16985;50.814;8.530;2022-09-21T05:14:57;4.55;;;2.35;;
30173;SDS011;16985;50.814;8.530;2022-09-21T05:17:23;4.25;;;2.85;;
30173;SDS011;16985;50.814;8.530;2022-09-21T05:19:49;5.57;;;3.03;;
30173;SDS011;16985;50.814;8.530;2022-09-21T05:22:17;7.40;;;3.40;;
30173;SDS011;16985;50.814;8.530;2022-09-21T05:24:44;4.35;;;2.80;;
30173;SDS011;16985;50.814;8.530;2022-09-21T05:27:10;5.82;;;2.92;;
30173;SDS011;16985;50.814;8.530;2022-09-21T05:29:37;6.80;;;2.92;;
30173;SDS011;16985;50.814;8.530;2022-09-21T05:32:06;3.67;;;2.33;;
30173;SDS011;16985;50.814;8.530;2022-09-21T05:34:54;4.35;;;2.65;;
30173;SDS011;16985;50.814;8.530;2022-09-21T05:37:47;2.97;;;2.42;;
30173;SDS011;16985;50.814;8.530;2022-09-21T05:40:23;4.57;;;2.70;;
30173;SDS011;16985;50.814;8.530;2022-09-21T05:42:49;8.15;;;3.17;;
30173;SDS011;16985;50.814;8.530;2022-09-21T05:45:16;4.47;;;3.10;;
30173;SDS011;16985;50.814;8.530;2022-09-21T05:47:51;6.47;;;2.65;;
30173;SDS011;16985;50.814;8.530;2022-09-21T05:50:45;3.25;;;2.70;;
30173;SDS011;16985;50.814;8.530;2022-09-21T05:56:05;7.07;;;3.53;;
30173;SDS011;16985;50.814;8.530;2022-09-21T06:04:20;9.20;;;3.67;;
30173;SDS011;16985;50.814;8.530;2022-09-21T06:06:46;6.88;;;4.00;;
30173;SDS011;16985;50.814;8.530;2022-09-21T06:09:12;7.28;;;3.92;;
30173;SDS011;16985;50.814;8.530;2022-09-21T06:11:38;4.80;;;3.70;;
30173;SDS011;16985;50.814;8.530;2022-09-21T06:14:04;5.82;;;3.72;;
30173;SDS011;16985;50.814;8.530;2022-09-21T06:16:39;4.35;;;3.50;;
30173;SDS011;16985;50.814;8.530;2022-09-21T06:19:10;6.30;;;3.15;;
30173;SDS011;16985;50.814;8.530;2022-09-21T06:21:45;8.32;;;3.30;;
30173;SDS011;16985;50.814;8.530;2022-09-21T06:24:11;7.93;;;3.88;;
30173;SDS011;16985;50.814;8.530;2022-09-21T06:26:37;5.50;;;3.58;;
30173;SDS011;16985;50.814;8.530;2022-09-21T06:29:03;7.20;;;3.28;;
30173;SDS011;16985;50.814;8.530;2022-09-21T06:31:28;6.00;;;3.97;;
30173;SDS011;16985;50.814;8.530;2022-09-21T06:33:55;4.22;;;3.13;;
30173;SDS011;16985;50.814;8.530;2022-09-21T06:36:20;3.95;;;3.20;;
30173;SDS011;16985;50.814;8.530;2022-09-21T06:38:47;6.03;;;3.45;;
30173;SDS011;16985;50.814;8.530;2022-09-21T06:41:12;7.68;;;3.00;;
30173;SDS011;16985;50.814;8.530;2022-09-21T06:43:38;4.22;;;2.88;;
30173;SDS011;16985;50.814;8.530;2022-09-21T06:46:04;3.33;;;2.83;;
30173;SDS011;16985;50.814;8.530;2022-09-21T06:48:31;4.65;;;2.47;;
30173;SDS011;16985;50.814;8.530;2022-09-21T06:50:59;7.13;;;2.78;;
30173;SDS011;16985;50.814;8.530;2022-09-21T06:53:28;3.78;;;2.78;;
30173;SDS011;16985;50.814;8.530;2022-09-21T06:58:32;4.47;;;3.22;;
30173;SDS011;16985;50.814;8.530;2022-09-21T07:01:05;8.25;;;3.03;;
30173;SDS011;16985;50.814;8.530;2022-09-21T07:03:33;9.70;;;3.67;;
30173;SDS011;16985;50.814;8.530;2022-09-21T07:05:59;8.98;;;3.80;;
30173;SDS011;16985;50.814;8.530;2022-09-21T07:08:25;4.43;;;3.25;;
30173;SDS011;16985;50.814;8.530;2022-09-21T07:10:51;6.80;;;3.78;;
30173;SDS011;16985;50.814;8.530;2022-09-21T07:13:17;5.00;;;3.13;;
30173;SDS011;16985;50.814;8.530;2022-09-21T07:15:43;10.27;;;3.60;;
30173;SDS011;16985;50.814;8.530;2022-09-21T07:18:12;5.35;;;3.30;;
30173;SDS011;16985;50.814;8.530;2022-09-21T07:20:39;4.93;;;3.33;;
30173;SDS011;16985;50.814;8.530;2022-09-21T07:23:15;6.28;;;3.58;;
30173;SDS011;16985;50.814;8.530;2022-09-21T07:25:43;9.57;;;4.53;;
30173;SDS011;16985;50.814;8.530;2022-09-21T07:28:13;6.45;;;4.35;;
30173;SDS011;16985;50.814;8.530;2022-09-21T07:30:39;7.05;;;4.28;;
30173;SDS011;16985;50.814;8.530;2022-09-21T07:33:05;5.47;;;3.75;;
30173;SDS011;16985;50.814;8.530;2022-09-21T07:35:32;8.15;;;4.10;;
30173;SDS011;16985;50.814;8.530;2022-09-21T07:37:59;11.00;;;4.28;;
30173;SDS011;16985;50.814;8.530;2022-09-21T07:40:27;10.38;;;5.03;;
30173;SDS011;16985;50.814;8.530;2022-09-21T07:42:57;9.10;;;4.63;;
30173;SDS011;16985;50.814;8.530;2022-09-21T07:45:24;8.15;;;4.68;;
30173;SDS011;16985;50.814;8.530;2022-09-21T07:47:50;9.10;;;4.70;;
30173;SDS011;16985;50.814;8.530;2022-09-21T07:50:21;6.60;;;4.53;;
30173;SDS011;16985;50.814;8.530;2022-09-21T07:52:47;10.40;;;5.50;;
30173;SDS011;16985;50.814;8.530;2022-09-21T07:55:13;12.07;;;5.60;;
30173;SDS011;16985;50.814;8.530;2022-09-21T07:57:39;13.13;;;5.80;;
30173;SDS011;16985;50.814;8.530;2022-09-21T08:00:24;13.90;;;6.28;;
30173;SDS011;16985;50.814;8.530;2022-09-21T08:02:52;16.45;;;5.82;;
30173;SDS011;16985;50.814;8.530;2022-09-21T08:05:17;10.68;;;5.65;;
30173;SDS011;16985;50.814;8.530;2022-09-21T08:07:43;13.02;;;5.65;;
30173;SDS011;16985;50.814;8.530;2022-09-21T08:10:09;15.23;;;5.57;;
30173;SDS011;16985;50.814;8.530;2022-09-21T08:12:35;6.70;;;5.80;;
30173;SDS011;16985;50.814;8.530;2022-09-21T08:15:01;13.63;;;6.85;;
30173;SDS011;16985;50.814;8.530;2022-09-21T08:17:27;10.43;;;5.50;;
30173;SDS011;16985;50.814;8.530;2022-09-21T08:19:53;13.25;;;5.68;;
30173;SDS011;16985;50.814;8.530;2022-09-21T08:22:19;7.80;;;4.95;;
30173;SDS011;16985;50.814;8.530;2022-09-21T08:24:49;6.15;;;4.32;;
30173;SDS011;16985;50.814;8.530;2022-09-21T08:27:16;14.00;;;4.72;;
30173;SDS011;16985;50.814;8.530;2022-09-21T08:29:44;13.20;;;4.40;;
30173;SDS011;16985;50.814;8.530;2022-09-21T08:32:10;13.23;;;4.30;;
30173;SDS011;16985;50.814;8.530;2022-09-21T08:34:36;10.05;;;4.35;;
30173;SDS011;16985;50.814;8.530;2022-09-21T08:37:02;8.52;;;3.85;;
30173;SDS011;16985;50.814;8.530;2022-09-21T08:39:27;8.73;;;3.20;;
30173;SDS011;16985;50.814;8.530;2022-09-21T08:41:59;7.03;;;3.45;;
30173;SDS011;16985;50.814;8.530;2022-09-21T08:44:52;13.25;;;3.63;;
30173;SDS011;16985;50.814;8.530;2022-09-21T08:53:11;10.70;;;3.05;;
30173;SDS011;16985;50.814;8.530;2022-09-21T08:55:44;12.43;;;2.83;;
30173;SDS011;16985;50.814;8.530;2022-09-21T08:58:20;5.57;;;2.80;;
30173;SDS011;16985;50.814;8.530;2022-09-21T09:01:06;8.27;;;2.83;;
30173;SDS011;16985;50.814;8.530;2022-09-21T09:12:29;6.80;;;2.15;;
30173;SDS011;16985;50.814;8.530;2022-09-21T09:15:32;5.65;;;2.20;;
30173;SDS011;16985;50.814;8.530;2022-09-21T09:18:17;7.15;;;2.15;;
30173;SDS011;16985;50.814;8.530;2022-09-21T09:20:59;8.07;;;3.45;;
30173;SDS011;16985;50.814;8.530;2022-09-21T09:23:52;10.23;;;2.10;;
30173;SDS011;16985;50.814;8.530;2022-09-21T09:29:43;5.70;;;1.80;;
30173;SDS011;16985;50.814;8.530;2022-09-21T09:32:30;5.25;;;2.28;;
30173;SDS011;16985;50.814;8.530;2022-09-21T09:37:54;5.00;;;2.03;;
30173;SDS011;16985;50.814;8.530;2022-09-21T09:40:35;5.20;;;1.70;;
30173;SDS011;16985;50.814;8.530;2022-09-21T09:46:57;4.15;;;1.73;;
30173;SDS011;16985;50.814;8.530;2022-09-21T09:53:04;3.72;;;1.35;;
30173;SDS011;16985;50.814;8.530;2022-09-21T09:55:40;4.88;;;1.85;;
30173;SDS011;16985;50.814;8.530;2022-09-21T10:04:24;2.58;;;1.00;;
30173;SDS011;16985;50.814;8.530;2022-09-21T10:06:49;2.00;;;1.23;;
30173;SDS011;16985;50.814;8.530;2022-09-21T10:11:44;6.75;;;1.33;;
30173;SDS011;16985;50.814;8.530;2022-09-21T10:14:13;5.80;;;1.30;;
30173;SDS011;16985;50.814;8.530;2022-09-21T10:16:45;3.83;;;1.17;;
30173;SDS011;16985;50.814;8.530;2022-09-21T10:19:22;2.50;;;0.93;;
30173;SDS011;16985;50.814;8.530;2022-09-21T10:21:55;2.50;;;1.33;;
30173;SDS011;16985;50.814;8.530;2022-09-21T10:27:05;3.88;;;1.25;;
30173;SDS011;16985;50.814;8.530;2022-09-21T10:29:43;3.08;;;0.95;;
30173;SDS011;16985;50.814;8.530;2022-09-21T10:34:37;1.80;;;1.00;;
30173;SDS011;16985;50.814;8.530;2022-09-21T10:37:29;1.95;;;0.85;;
30173;SDS011;16985;50.814;8.530;2022-09-21T10:39:59;1.23;;;0.80;;
30173;SDS011;16985;50.814;8.530;2022-09-21T10:42:25;2.92;;;1.20;;
30173;SDS011;16985;50.814;8.530;2022-09-21T10:45:15;2.00;;;0.90;;
30173;SDS011;16985;50.814;8.530;2022-09-21T10:47:56;1.58;;;0.88;;
30173;SDS011;16985;50.814;8.530;2022-09-21T10:50:35;4.70;;;1.23;;
30173;SDS011;16985;50.814;8.530;2022-09-21T10:55:38;3.70;;;1.27;;
30173;SDS011;16985;50.814;8.530;2022-09-21T10:58:11;3.97;;;1.30;;
30173;SDS011;16985;50.814;8.530;2022-09-21T11:00:48;3.15;;;0.77;;
30173;SDS011;16985;50.814;8.530;2022-09-21T11:06:04;2.72;;;0.90;;
30173;SDS011;16985;50.814;8.530;2022-09-21T11:08:54;2.58;;;0.95;;
30173;SDS011;16985;50.814;8.530;2022-09-21T11:16:53;2.75;;;0.80;;
30173;SDS011;16985;50.814;8.530;2022-09-21T11:22:30;1.48;;;0.80;;
30173;SDS011;16985;50.814;8.530;2022-09-21T11:25:35;3.35;;;1.05;;
30173;SDS011;16985;50.814;8.530;2022-09-21T11:28:18;3.28;;;1.00;;
30173;SDS011;16985;50.814;8.530;2022-09-21T11:43:02;1.38;;;0.70;;
30173;SDS011;16985;50.814;8.530;2022-09-21T11:57:06;2.20;;;0.90;;
30173;SDS011;16985;50.814;8.530;2022-09-21T12:08:47;1.77;;;0.68;;
30173;SDS011;16985;50.814;8.530;2022-09-21T12:12:07;1.33;;;0.60;;
30173;SDS011;16985;50.814;8.530;2022-09-21T12:15:02;0.77;;;0.50;;
30173;SDS011;16985;50.814;8.530;2022-09-21T12:21:08;3.55;;;0.70;;
30173;SDS011;16985;50.814;8.530;2022-09-21T12:23:53;1.38;;;0.65;;
30173;SDS011;16985;50.814;8.530;2022-09-21T12:26:23;1.60;;;0.60;;
30173;SDS011;16985;50.814;8.530;2022-09-21T12:29:11;0.50;;;0.50;;
30173;SDS011;16985;50.814;8.530;2022-09-21T12:32:53;2.35;;;0.80;;
30173;SDS011;16985;50.814;8.530;2022-09-21T12:35:28;1.23;;;0.70;;
30173;SDS011;16985;50.814;8.530;2022-09-21T12:38:29;0.68;;;0.47;;
30173;SDS011;16985;50.814;8.530;2022-09-21T12:46:48;0.60;;;0.40;;
30173;SDS011;16985;50.814;8.530;2022-09-21T12:49:33;3.85;;;0.80;;
30173;SDS011;16985;50.814;8.530;2022-09-21T12:52:08;1.45;;;0.57;;
30173;SDS011;16985;50.814;8.530;2022-09-21T13:00:39;1.27;;;1.17;;
30173;SDS011;16985;50.814;8.530;2022-09-21T13:03:19;3.70;;;0.55;;
30173;SDS011;16985;50.814;8.530;2022-09-21T13:09:11;1.40;;;0.77;;
30173;SDS011;16985;50.814;8.530;2022-09-21T13:12:16;1.05;;;0.70;;
30173;SDS011;16985;50.814;8.530;2022-09-21T13:14:44;3.17;;;0.95;;
30173;SDS011;16985;50.814;8.530;2022-09-21T13:20:18;0.80;;;0.40;;
30173;SDS011;16985;50.814;8.530;2022-09-21T13:22:45;1.70;;;0.80;;
30173;SDS011;16985;50.814;8.530;2022-09-21T13:25:25;2.93;;;0.50;;
30173;SDS011;16985;50.814;8.530;2022-09-21T13:28:16;1.85;;;0.73;;
30173;SDS011;16985;50.814;8.530;2022-09-21T13:30:46;3.90;;;0.80;;
30173;SDS011;16985;50.814;8.530;2022-09-21T13:33:38;2.03;;;0.77;;
30173;SDS011;16985;50.814;8.530;2022-09-21T13:39:13;1.92;;;0.60;;
30173;SDS011;16985;50.814;8.530;2022-09-21T13:41:42;2.08;;;0.50;;
30173;SDS011;16985;50.814;8.530;2022-09-21T13:44:17;1.15;;;0.50;;
30173;SDS011;16985;50.814;8.530;2022-09-21T13:47:04;0.52;;;0.52;;
30173;SDS011;16985;50.814;8.530;2022-09-21T13:49:38;1.83;;;0.70;;
30173;SDS011;16985;50.814;8.530;2022-09-21T14:10:39;2.83;;;1.27;;
30173;SDS011;16985;50.814;8.530;2022-09-21T14:13:38;1.10;;;0.60;;
30173;SDS011;16985;50.814;8.530;2022-09-21T14:18:53;1.88;;;0.80;;
30173;SDS011;16985;50.814;8.530;2022-09-21T14:21:20;0.75;;;0.70;;
30173;SDS011;16985;50.814;8.530;2022-09-21T14:29:12;0.75;;;0.60;;
30173;SDS011;16985;50.814;8.530;2022-09-21T14:32:13;1.02;;;0.50;;
30173;SDS011;16985;50.814;8.530;2022-09-21T14:34:49;1.30;;;0.57;;
30173;SDS011;16985;50.814;8.530;2022-09-21T14:37:32;0.55;;;0.52;;
30173;SDS011;16985;50.814;8.530;2022-09-21T14:40:05;1.40;;;0.63;;
30173;SDS011;16985;50.814;8.530;2022-09-21T14:42:50;3.08;;;0.80;;
30173;SDS011;16985;50.814;8.530;2022-09-21T14:45:40;1.45;;;0.70;;
30173;SDS011;16985;50.814;8.530;2022-09-21T14:54:16;3.95;;;1.25;;
30173;SDS011;16985;50.814;8.530;2022-09-21T14:57:26;2.40;;;0.98;;
30173;SDS011;16985;50.814;8.530;2022-09-21T15:05:44;5.20;;;1.90;;
30173;SDS011;16985;50.814;8.530;2022-09-21T15:13:01;4.22;;;1.35;;
30173;SDS011;16985;50.814;8.530;2022-09-21T15:18:46;2.20;;;0.90;;
30173;SDS011;16985;50.814;8.530;2022-09-21T15:21:25;2.17;;;0.90;;
30173;SDS011;16985;50.814;8.530;2022-09-21T15:23:54;2.55;;;1.00;;
30173;SDS011;16985;50.814;8.530;2022-09-21T15:26:21;5.68;;;1.20;;
30173;SDS011;16985;50.814;8.530;2022-09-21T15:28:58;1.42;;;1.00;;
30173;SDS011;16985;50.814;8.530;2022-09-21T15:31:34;2.20;;;1.25;;
30173;SDS011;16985;50.814;8.530;2022-09-21T15:34:05;3.95;;;1.00;;
30173;SDS011;16985;50.814;8.530;2022-09-21T15:36:34;2.63;;;1.27;;
30173;SDS011;16985;50.814;8.530;2022-09-21T15:39:02;3.17;;;1.00;;
30173;SDS011;16985;50.814;8.530;2022-09-21T15:41:42;3.13;;;1.23;;
30173;SDS011;16985;50.814;8.530;2022-09-21T15:46:40;2.28;;;0.85;;
30173;SDS011;16985;50.814;8.530;2022-09-21T15:49:12;4.40;;;1.20;;
30173;SDS011;16985;50.814;8.530;2022-09-21T15:51:41;2.15;;;1.02;;
30173;SDS011;16985;50.814;8.530;2022-09-21T15:54:31;2.28;;;1.17;;
30173;SDS011;16985;50.814;8.530;2022-09-21T15:56:59;2.17;;;0.82;;
30173;SDS011;16985;50.814;8.530;2022-09-21T15:59:33;3.65;;;1.10;;
30173;SDS011;16985;50.814;8.530;2022-09-21T16:01:59;3.40;;;0.70;;
30173;SDS011;16985;50.814;8.530;2022-09-21T16:04:35;1.20;;;0.70;;
30173;SDS011;16985;50.814;8.530;2022-09-21T16:07:09;2.17;;;0.93;;
30173;SDS011;16985;50.814;8.530;2022-09-21T16:09:54;1.92;;;1.08;;
30173;SDS011;16985;50.814;8.530;2022-09-21T16:20:40;4.22;;;0.93;;
30173;SDS011;16985;50.814;8.530;2022-09-21T16:23:18;6.00;;;1.10;;
30173;SDS011;16985;50.814;8.530;2022-09-21T16:25:55;1.05;;;0.63;;
30173;SDS011;16985;50.814;8.530;2022-09-21T16:28:26;0.93;;;0.75;;
30173;SDS011;16985;50.814;8.530;2022-09-21T16:30:59;2.83;;;0.75;;
30173;SDS011;16985;50.814;8.530;2022-09-21T16:38:44;1.92;;;1.10;;
30173;SDS011;16985;50.814;8.530;2022-09-21T16:41:11;3.78;;;2.80;;
30173;SDS011;16985;50.814;8.530;2022-09-21T16:43:38;6.37;;;4.47;;
30173;SDS011;16985;50.814;8.530;2022-09-21T16:46:07;10.93;;;4.90;;
30173;SDS011;16985;50.814;8.530;2022-09-21T16:48:34;10.40;;;4.60;;
30173;SDS011;16985;50.814;8.530;2022-09-21T16:51:00;7.30;;;4.55;;
30173;SDS011;16985;50.814;8.530;2022-09-21T16:53:25;11.07;;;5.97;;
30173;SDS011;16985;50.814;8.530;2022-09-21T16:55:54;8.40;;;5.30;;
30173;SDS011;16985;50.814;8.530;2022-09-21T16:58:20;10.70;;;6.10;;
30173;SDS011;16985;50.814;8.530;2022-09-21T17:00:48;9.48;;;4.80;;
30173;SDS011;16985;50.814;8.530;2022-09-21T17:03:17;8.38;;;4.32;;
30173;SDS011;16985;50.814;8.530;2022-09-21T17:05:43;8.35;;;4.82;;
30173;SDS011;16985;50.814;8.530;2022-09-21T17:08:10;8.43;;;4.70;;
30173;SDS011;16985;50.814;8.530;2022-09-21T17:10:37;7.38;;;4.57;;
30173;SDS011;16985;50.814;8.530;2022-09-21T17:13:08;8.05;;;5.00;;
30173;SDS011;16985;50.814;8.530;2022-09-21T17:15:34;6.60;;;4.28;;
30173;SDS011;16985;50.814;8.530;2022-09-21T17:18:02;7.22;;;4.70;;
30173;SDS011;16985;50.814;8.530;2022-09-21T17:20:38;8.05;;;5.68;;
30173;SDS011;16985;50.814;8.530;2022-09-21T17:23:08;9.95;;;5.97;;
30173;SDS011;16985;50.814;8.530;2022-09-21T17:25:35;9.93;;;6.70;;
30173;SDS011;16985;50.814;8.530;2022-09-21T17:28:02;12.00;;;4.97;;
30173;SDS011;16985;50.814;8.530;2022-09-21T17:30:37;9.13;;;4.85;;
30173;SDS011;16985;50.814;8.530;2022-09-21T17:33:03;14.38;;;4.95;;
30173;SDS011;16985;50.814;8.530;2022-09-21T17:35:36;8.40;;;4.50;;
30173;SDS011;16985;50.814;8.530;2022-09-21T17:38:05;9.27;;;4.28;;
30173;SDS011;16985;50.814;8.530;2022-09-21T17:40:32;5.60;;;4.30;;
30173;SDS011;16985;50.814;8.530;2022-09-21T17:45:39;8.50;;;4.93;;
30173;SDS011;16985;50.814;8.530;2022-09-21T17:48:42;10.38;;;5.50;;
30173;SDS011;16985;50.814;8.530;2022-09-21T17:51:09;13.07;;;6.65;;
30173;SDS011;16985;50.814;8.530;2022-09-21T17:53:36;15.40;;;6.68;;
30173;SDS011;16985;50.814;8.530;2022-09-21T17:56:10;12.70;;;6.72;;
30173;SDS011;16985;50.814;8.530;2022-09-21T18:01:35;8.35;;;5.10;;
30173;SDS011;16985;50.814;8.530;2022-09-21T18:04:04;8.30;;;4.57;;
30173;SDS011;16985;50.814;8.530;2022-09-21T18:06:31;7.15;;;4.22;;
30173;SDS011;16985;50.814;8.530;2022-09-21T18:08:59;5.95;;;3.00;;
30173;SDS011;16985;50.814;8.530;2022-09-21T18:24:00;5.22;;;2.38;;
30173;SDS011;16985;50.814;8.530;2022-09-21T18:26:44;6.10;;;2.58;;
30173;SDS011;16985;50.814;8.530;2022-09-21T18:40:39;10.23;;;2.67;;
30173;SDS011;16985;50.814;8.530;2022-09-21T18:43:49;6.75;;;2.83;;
30173;SDS011;16985;50.814;8.530;2022-09-21T18:46:37;5.43;;;2.28;;
30173;SDS011;16985;50.814;8.530;2022-09-21T18:49:57;5.63;;;3.22;;
30173;SDS011;16985;50.814;8.530;2022-09-21T18:52:46;3.63;;;2.30;;
30173;SDS011;16985;50.814;8.530;2022-09-21T18:55:26;4.95;;;2.60;;
30173;SDS011;16985;50.814;8.530;2022-09-21T18:57:56;6.10;;;2.83;;
30173;SDS011;16985;50.814;8.530;2022-09-21T19:00:24;6.73;;;3.17;;
30173;SDS011;16985;50.814;8.530;2022-09-21T19:02:58;5.50;;;2.35;;
30173;SDS011;16985;50.814;8.530;2022-09-21T19:05:35;8.10;;;2.47;;
30173;SDS011;16985;50.814;8.530;2022-09-21T19:10:46;6.05;;;2.28;;
30173;SDS011;16985;50.814;8.530;2022-09-21T19:13:37;2.83;;;2.28;;
30173;SDS011;16985;50.814;8.530;2022-09-21T19:27:57;3.53;;;2.03;;
30173;SDS011;16985;50.814;8.530;2022-09-21T19:30:27;7.90;;;3.47;;
30173;SDS011;16985;50.814;8.530;2022-09-21T19:32:54;6.75;;;2.67;;
30173;SDS011;16985;50.814;8.530;2022-09-21T19:35:30;4.05;;;2.38;;
30173;SDS011;16985;50.814;8.530;2022-09-21T19:38:00;6.50;;;3.55;;